createdAt,value
2023-01-13T00:00:15.594Z,96437.91
2023-01-13T00:02:42.457Z,96441.34
2023-01-13T00:05:10.311Z,96443.72
2023-01-13T00:07:40.137Z,96452.84
2023-01-13T00:10:11.346Z,96460.38
2023-01-13T00:12:41.518Z,96454.94
2023-01-13T00:15:09.209Z,96465.13
2023-01-13T00:17:36.121Z,96465.50
2023-01-13T00:20:03.143Z,96464.47
2023-01-13T00:22:29.850Z,96472.81
2023-01-13T00:24:58.252Z,96479.16
2023-01-13T00:27:25.379Z,96471.28
2023-01-13T00:29:52.328Z,96480.56
2023-01-13T00:32:19.039Z,96493.09
2023-01-13T00:34:45.888Z,96494.28
2023-01-13T00:37:15.764Z,96506.31
2023-01-13T00:39:42.516Z,96507.88
2023-01-13T00:42:28.740Z,96511.06
2023-01-13T00:44:55.504Z,96517.38
2023-01-13T00:47:23.405Z,96537.06
2023-01-13T00:49:50.227Z,96535.31
2023-01-13T00:52:16.968Z,96537.91
2023-01-13T00:54:43.795Z,96549.06
2023-01-13T00:57:10.626Z,96554.66
2023-01-13T00:59:37.319Z,96553.28
2023-01-13T01:02:04.164Z,96554.03
2023-01-13T01:04:31.260Z,96560.97
2023-01-13T01:06:58.126Z,96578.00
2023-01-13T01:09:32.532Z,96572.91
2023-01-13T01:12:00.320Z,96579.31
2023-01-13T01:14:27.337Z,96590.44
2023-01-13T01:16:54.737Z,96589.31
2023-01-13T01:19:21.548Z,96598.81
2023-01-13T01:21:49.080Z,96598.03
2023-01-13T01:24:16.771Z,96594.81
2023-01-13T01:26:43.624Z,96601.19
2023-01-13T01:29:14.572Z,96612.94
2023-01-13T01:31:41.305Z,96621.38
2023-01-13T01:34:08.102Z,96621.91
2023-01-13T01:36:36.313Z,96628.06
2023-01-13T01:39:04.276Z,96633.38
2023-01-13T01:41:33.091Z,96629.78
2023-01-13T01:44:04.498Z,96637.53
2023-01-13T01:46:41.353Z,96644.16
2023-01-13T01:49:11.062Z,96657.09
2023-01-13T01:51:55.176Z,96663.78
2023-01-13T01:54:30.564Z,96672.78
2023-01-13T01:56:57.561Z,96670.78
2023-01-13T01:59:28.209Z,96676.63
2023-01-13T02:01:57.266Z,96694.31
2023-01-13T02:04:31.128Z,96689.47
2023-01-13T02:06:58.152Z,96703.78
2023-01-13T02:09:25.540Z,96714.19
2023-01-13T02:12:10.716Z,96720.94
2023-01-13T02:14:38.207Z,96718.16
2023-01-13T02:17:26.746Z,96722.97
2023-01-13T02:20:21.521Z,96730.91
2023-01-13T02:24:00.346Z,96741.56
2023-01-13T02:27:01.239Z,96749.81
2023-01-13T02:30:20.936Z,96756.16
2023-01-13T02:33:22.279Z,96773.72
2023-01-13T02:35:50.928Z,96779.59
2023-01-13T02:38:29.135Z,96778.53
2023-01-13T02:41:33.787Z,96790.81
2023-01-13T02:44:08.995Z,96790.94
2023-01-13T02:47:20.339Z,96805.19
2023-01-13T02:49:48.370Z,96817.38
2023-01-13T02:52:43.018Z,96813.91
2023-01-13T02:55:14.221Z,96819.63
2023-01-13T02:57:42.470Z,96826.19
2023-01-13T03:00:11.562Z,96828.13
2023-01-13T03:02:38.800Z,96830.88
2023-01-13T03:05:06.286Z,96841.25
2023-01-13T03:07:55.720Z,96851.34
2023-01-13T03:10:50.076Z,96840.72
2023-01-13T03:13:53.860Z,96845.16
2023-01-13T03:16:48.084Z,96862.78
2023-01-13T03:19:17.648Z,96871.59
2023-01-13T03:21:53.769Z,96871.28
2023-01-13T03:24:24.700Z,96883.81
2023-01-13T03:27:13.035Z,96890.72
2023-01-13T03:30:18.521Z,96899.22
2023-01-13T03:32:55.999Z,96888.25
2023-01-13T03:35:37.152Z,96894.41
2023-01-13T03:38:11.355Z,96890.13
2023-01-13T03:40:45.668Z,96907.75
2023-01-13T03:43:34.718Z,96919.22
2023-01-13T03:46:07.361Z,96915.69
2023-01-13T03:48:36.181Z,96930.03
2023-01-13T03:51:07.507Z,96929.22
2023-01-13T03:53:37.959Z,96928.72
2023-01-13T03:56:12.972Z,96942.03
2023-01-13T03:58:42.839Z,96942.59
2023-01-13T04:01:25.319Z,96948.47
2023-01-13T04:03:59.572Z,96948.47
2023-01-13T04:06:29.281Z,96953.25
2023-01-13T04:09:02.212Z,96974.00
2023-01-13T04:11:33.730Z,96978.75
2023-01-13T04:14:02.065Z,96979.59
2023-01-13T04:16:28.962Z,96988.84
2023-01-13T04:18:55.762Z,96997.34
2023-01-13T04:21:22.508Z,96994.16
2023-01-13T04:23:51.516Z,96999.47
2023-01-13T04:26:19.881Z,96998.41
2023-01-13T04:28:46.870Z,97010.13
2023-01-13T04:31:13.758Z,97022.38
2023-01-13T04:33:40.710Z,97022.91
2023-01-13T04:36:07.760Z,97023.97
2023-01-13T04:38:34.561Z,97029.84
2023-01-13T04:41:01.361Z,97032.22
2023-01-13T04:43:28.223Z,97034.09
2023-01-13T04:45:55.108Z,97041.06
2023-01-13T04:48:21.945Z,97058.06
2023-01-13T04:50:48.680Z,97062.56
2023-01-13T04:53:15.645Z,97066.03
2023-01-13T04:55:44.356Z,97082.00
2023-01-13T04:58:11.405Z,97085.75
2023-01-13T05:00:38.437Z,97092.91
2023-01-13T05:03:05.319Z,97113.97
2023-01-13T05:05:32.171Z,97125.41
2023-01-13T05:07:58.994Z,97130.72
2023-01-13T05:10:26.627Z,97143.75
2023-01-13T05:13:11.985Z,97156.25
2023-01-13T05:15:59.459Z,97148.53
2023-01-13T05:18:26.551Z,97160.25
2023-01-13T05:20:53.391Z,97172.72
2023-01-13T05:23:38.852Z,97173.25
2023-01-13T05:26:06.059Z,97186.28
2023-01-13T05:28:33.987Z,97193.19
2023-01-13T05:31:00.951Z,97195.06
2023-01-13T05:33:27.774Z,97204.59
2023-01-13T05:35:54.532Z,97213.69
2023-01-13T05:38:21.774Z,97218.22
2023-01-13T05:41:07.204Z,97233.88
2023-01-13T05:43:35.007Z,97248.22
2023-01-13T05:46:03.171Z,97251.19
2023-01-13T05:48:35.098Z,97255.44
2023-01-13T05:51:03.313Z,97261.56
2023-01-13T05:53:30.373Z,97276.44
2023-01-13T05:55:57.156Z,97258.63
2023-01-13T05:58:25.807Z,97307.28
2023-01-13T06:00:53.053Z,97302.19
2023-01-13T06:03:20.311Z,97325.59
2023-01-13T06:05:47.820Z,97341.06
2023-01-13T06:08:14.785Z,97356.50
2023-01-13T06:10:41.820Z,97358.66
2023-01-13T06:13:08.528Z,97368.00
2023-01-13T06:15:35.337Z,97379.97
2023-01-13T06:18:03.945Z,97392.19
2023-01-13T06:20:30.840Z,97403.88
2023-01-13T06:22:58.189Z,97408.38
2023-01-13T06:25:49.346Z,97410.56
2023-01-13T06:28:16.019Z,97420.41
2023-01-13T06:30:46.914Z,97433.66
2023-01-13T06:33:20.628Z,97440.06
2023-01-13T06:35:55.697Z,97447.56
2023-01-13T06:38:23.499Z,97452.06
2023-01-13T06:40:50.503Z,97457.13
2023-01-13T06:43:17.885Z,97455.25
2023-01-13T06:45:53.152Z,97466.19
2023-01-13T06:48:35.277Z,97485.41
2023-01-13T06:51:03.746Z,97498.09
2023-01-13T06:53:30.598Z,97510.69
2023-01-13T06:55:57.411Z,97515.47
2023-01-13T06:58:24.228Z,97519.47
2023-01-13T07:00:51.655Z,97530.63
2023-01-13T07:03:19.678Z,97539.44
2023-01-13T07:05:54.246Z,97538.81
2023-01-13T07:08:22.008Z,97555.56
2023-01-13T07:10:48.781Z,97572.88
2023-01-13T07:13:34.221Z,97578.53
2023-01-13T07:16:03.041Z,97605.41
2023-01-13T07:18:32.174Z,97596.38
2023-01-13T07:21:05.165Z,97605.34
2023-01-13T07:23:35.399Z,97608.28
2023-01-13T07:26:02.662Z,97630.41
2023-01-13T07:28:30.208Z,97640.69
2023-01-13T07:30:57.829Z,97658.94
2023-01-13T07:33:24.696Z,97652.50
2023-01-13T07:36:02.858Z,97657.97
2023-01-13T07:38:30.646Z,97660.41
2023-01-13T07:40:57.456Z,97672.66
2023-01-13T07:43:33.378Z,97676.50
2023-01-13T07:46:05.100Z,97681.19
2023-01-13T07:48:33.942Z,97699.25
2023-01-13T07:51:08.783Z,97704.41
2023-01-13T07:53:35.901Z,97710.22
2023-01-13T07:56:04.737Z,97712.59
2023-01-13T07:58:33.249Z,97714.72
2023-01-13T08:01:00.192Z,97712.34
2023-01-13T08:03:27.335Z,97718.09
2023-01-13T08:05:54.108Z,97728.75
2023-01-13T08:08:20.954Z,97730.19
2023-01-13T08:10:47.846Z,97729.22
2023-01-13T08:13:22.833Z,97749.44
2023-01-13T08:15:54.316Z,97753.06
2023-01-13T08:18:22.483Z,97758.38
2023-01-13T08:20:52.352Z,97760.47
2023-01-13T08:23:23.195Z,97762.09
2023-01-13T08:25:50.582Z,97771.91
2023-01-13T08:28:17.731Z,97782.00
2023-01-13T08:30:44.623Z,97794.13
2023-01-13T08:33:12.698Z,97799.50
2023-01-13T08:35:40.903Z,97805.19
2023-01-13T08:38:09.056Z,97818.81
2023-01-13T08:40:36.026Z,97818.81
2023-01-13T08:43:03.061Z,97819.13
2023-01-13T08:45:29.879Z,97826.28
2023-01-13T08:47:56.745Z,97833.59
2023-01-13T08:50:23.808Z,97839.72
2023-01-13T08:52:50.709Z,97840.78
2023-01-13T08:55:17.534Z,97844.84
2023-01-13T08:57:44.625Z,97845.59
2023-01-13T09:00:12.122Z,97861.81
2023-01-13T09:02:39.029Z,97871.69
2023-01-13T09:05:07.428Z,97856.22
2023-01-13T09:07:35.739Z,97882.09
2023-01-13T09:10:03.020Z,97879.44
2023-01-13T09:12:48.527Z,97901.69
2023-01-13T09:15:18.498Z,97906.88
2023-01-13T09:17:45.863Z,97914.56
2023-01-13T09:20:13.099Z,97914.75
2023-01-13T09:22:40.798Z,97922.72
2023-01-13T09:25:09.285Z,97928.84
2023-01-13T09:27:36.229Z,97929.66
2023-01-13T09:30:03.670Z,97939.75
2023-01-13T09:32:30.444Z,97936.84
2023-01-13T09:35:00.178Z,97947.72
2023-01-13T09:37:28.656Z,97965.84
2023-01-13T09:39:55.807Z,97972.28
2023-01-13T09:43:07.258Z,97985.97
2023-01-13T09:45:47.299Z,97986.69
2023-01-13T09:48:24.879Z,97999.44
2023-01-13T09:50:55.071Z,98008.16
2023-01-13T09:53:27.562Z,98010.81
2023-01-13T09:55:55.085Z,98019.28
2023-01-13T09:58:21.841Z,98027.50
2023-01-13T10:01:04.892Z,98038.41
2023-01-13T10:03:33.477Z,98035.81
2023-01-13T10:06:21.042Z,98055.47
2023-01-13T10:08:48.449Z,98058.22
2023-01-13T10:11:42.228Z,98063.03
2023-01-13T10:14:28.622Z,98068.47
2023-01-13T10:17:13.625Z,98074.34
2023-01-13T10:19:55.682Z,98069.50
2023-01-13T10:22:37.098Z,98071.19
2023-01-13T10:25:21.012Z,98080.84
2023-01-13T10:27:50.208Z,98098.28
2023-01-13T10:30:31.078Z,98094.97
2023-01-13T10:33:01.215Z,98096.19
2023-01-13T10:36:00.064Z,98109.31
2023-01-13T10:38:30.023Z,98116.34
2023-01-13T10:41:02.424Z,98117.41
2023-01-13T10:43:29.965Z,98124.09
2023-01-13T10:46:05.891Z,98138.50
2023-01-13T10:48:41.939Z,98141.25
2023-01-13T10:51:17.816Z,98147.41
2023-01-13T10:54:14.599Z,98155.28
2023-01-13T10:56:43.885Z,98149.72
2023-01-13T10:59:17.005Z,98157.78
2023-01-13T11:01:56.042Z,98168.25
2023-01-13T11:04:32.152Z,98173.91
2023-01-13T11:06:59.743Z,98170.53
2023-01-13T11:09:27.501Z,98185.34
2023-01-13T11:11:57.770Z,98190.53
2023-01-13T11:14:33.465Z,98191.59
2023-01-13T11:17:20.765Z,98198.53
2023-01-13T11:20:20.892Z,98204.72
2023-01-13T11:22:53.112Z,98210.22
2023-01-13T11:25:32.835Z,98215.63
2023-01-13T11:28:26.868Z,98223.31
2023-01-13T11:31:02.093Z,98231.78
2023-01-13T11:33:38.025Z,98231.69
2023-01-13T11:36:08.180Z,98236.53
2023-01-13T11:38:43.438Z,98246.28
2023-01-13T11:41:17.153Z,98257.75
2023-01-13T11:43:50.669Z,98254.63
2023-01-13T11:46:17.637Z,98257.34
2023-01-13T11:48:44.387Z,98265.50
2023-01-13T11:51:14.146Z,98278.66
2023-01-13T11:53:59.311Z,98273.72
2023-01-13T11:57:18.626Z,98285.09
2023-01-13T12:00:11.320Z,98286.09
2023-01-13T12:03:23.220Z,98291.41
2023-01-13T12:06:03.586Z,98297.13
2023-01-13T12:09:11.810Z,98310.63
2023-01-13T12:12:23.389Z,98320.06
2023-01-13T12:15:25.763Z,98330.50
2023-01-13T12:18:30.076Z,98333.63
2023-01-13T12:21:01.002Z,98340.34
2023-01-13T12:23:32.766Z,98341.50
2023-01-13T12:26:08.654Z,98342.06
2023-01-13T12:29:07.318Z,98352.97
2023-01-13T12:31:37.084Z,98354.00
2023-01-13T12:34:20.488Z,98359.97
2023-01-13T12:37:16.089Z,98368.47
2023-01-13T12:40:01.044Z,98375.41
2023-01-13T12:43:04.973Z,98372.34
2023-01-13T12:45:33.433Z,98382.63
2023-01-13T12:48:00.748Z,98391.72
2023-01-13T12:50:27.583Z,98390.34
2023-01-13T12:53:30.987Z,98403.94
2023-01-13T12:56:20.689Z,98410.00
2023-01-13T12:58:47.484Z,98426.66
2023-01-13T13:01:15.035Z,98424.66
2023-01-13T13:03:42.259Z,98432.56
2023-01-13T13:06:22.459Z,98448.22
2023-01-13T13:09:13.938Z,98458.75
2023-01-13T13:11:59.456Z,98453.81
2023-01-13T13:14:49.510Z,98458.19
2023-01-13T13:17:28.555Z,98463.19
2023-01-13T13:19:59.793Z,98470.47
2023-01-13T13:22:26.564Z,98475.25
2023-01-13T13:24:56.385Z,98483.56
2023-01-13T13:27:38.666Z,98492.06
2023-01-13T13:30:37.861Z,98494.78
2023-01-13T13:33:13.850Z,98492.19
2023-01-13T13:35:56.140Z,98494.78
2023-01-13T13:39:07.275Z,98497.38
2023-01-13T13:41:54.671Z,98504.97
2023-01-13T13:44:58.184Z,98514.91
2023-01-13T13:47:25.183Z,98509.94
2023-01-13T13:49:54.532Z,98515.25
2023-01-13T13:52:26.708Z,98511.78
2023-01-13T13:54:57.844Z,98538.22
2023-01-13T13:57:39.515Z,98533.41
2023-01-13T14:00:23.117Z,98527.19
2023-01-13T14:03:01.844Z,98535.13
2023-01-13T14:05:36.800Z,98542.56
2023-01-13T14:08:23.868Z,98537.03
2023-01-13T14:10:50.810Z,98539.34
2023-01-13T14:13:26.413Z,98542.63
2023-01-13T14:15:56.814Z,98549.72
2023-01-13T14:18:23.933Z,98556.88
2023-01-13T14:20:54.614Z,98565.00
2023-01-13T14:23:26.456Z,98559.75
2023-01-13T14:25:54.019Z,98574.13
2023-01-13T14:28:27.023Z,98574.72
2023-01-13T14:30:54.843Z,98576.25
2023-01-13T14:33:38.857Z,98588.28
2023-01-13T14:36:12.483Z,98596.03
2023-01-13T14:38:39.480Z,98599.91
2023-01-13T14:41:13.711Z,98607.28
2023-01-13T14:43:48.168Z,98615.50
2023-01-13T14:49:06.108Z,98615.63
2023-01-13T14:51:32.928Z,98619.06
2023-01-13T14:53:59.914Z,98630.28
2023-01-13T14:56:42.695Z,98625.66
2023-01-13T14:59:31.253Z,98632.75
2023-01-13T15:01:58.556Z,98630.41
2023-01-13T15:04:27.438Z,98630.84
2023-01-13T15:06:56.222Z,98624.69
2023-01-13T15:09:25.815Z,98626.31
2023-01-13T15:11:54.306Z,98631.31
2023-01-13T15:14:26.914Z,98638.25
2023-01-13T15:16:53.700Z,98643.03
2023-01-13T15:19:20.480Z,98641.81
2023-01-13T15:21:47.333Z,98639.25
2023-01-13T15:24:14.092Z,98639.63
2023-01-13T15:26:41.000Z,98640.44
2023-01-13T15:29:15.179Z,98638.81
2023-01-13T15:31:42.439Z,98649.22
2023-01-13T15:34:09.217Z,98656.66
2023-01-13T15:36:37.543Z,98649.34
2023-01-13T15:39:04.765Z,98662.53
2023-01-13T15:41:50.260Z,98657.19
2023-01-13T15:44:36.106Z,98664.50
2023-01-13T15:47:06.390Z,98673.88
2023-01-13T15:49:43.125Z,98674.94
2023-01-13T15:52:21.504Z,98678.28
2023-01-13T15:54:48.886Z,98691.09
2023-01-13T15:57:27.444Z,98692.16
2023-01-13T16:00:01.016Z,98694.47
2023-01-13T16:02:29.848Z,98700.47
2023-01-13T16:04:57.077Z,98692.22
2023-01-13T16:07:25.046Z,98697.31
2023-01-13T16:09:52.470Z,98701.38
2023-01-13T16:12:19.319Z,98701.44
2023-01-13T16:14:46.256Z,98706.31
2023-01-13T16:17:19.204Z,98706.94
2023-01-13T16:19:46.537Z,98706.41
2023-01-13T16:22:15.198Z,98711.72
2023-01-13T16:24:42.516Z,98719.75
2023-01-13T16:27:24.408Z,98722.59
2023-01-13T16:29:52.176Z,98721.88
2023-01-13T16:32:20.933Z,98725.22
2023-01-13T16:34:48.165Z,98725.16
2023-01-13T16:37:24.565Z,98729.69
2023-01-13T16:39:53.090Z,98737.53
2023-01-13T16:42:20.581Z,98727.84
2023-01-13T16:44:48.567Z,98735.19
2023-01-13T16:47:16.698Z,98747.97
2023-01-13T16:49:43.823Z,98745.00
2023-01-13T16:52:10.859Z,98743.31
2023-01-13T16:54:37.850Z,98739.22
2023-01-13T16:57:06.264Z,98749.38
2023-01-13T16:59:33.415Z,98752.72
2023-01-13T17:02:02.140Z,98753.94
2023-01-13T17:04:29.150Z,98748.41
2023-01-13T17:07:04.661Z,98754.28
2023-01-13T17:09:31.759Z,98753.38
2023-01-13T17:11:58.944Z,98751.16
2023-01-13T17:14:26.565Z,98750.84
2023-01-13T17:16:57.207Z,98749.97
2023-01-13T17:19:24.632Z,98753.38
2023-01-13T17:21:51.401Z,98750.81
2023-01-13T17:24:18.608Z,98747.81
2023-01-13T17:26:50.659Z,98751.97
2023-01-13T17:29:23.211Z,98761.88
2023-01-13T17:31:51.000Z,98761.13
2023-01-13T17:34:18.702Z,98769.63
2023-01-13T17:36:45.961Z,98773.75
2023-01-13T17:39:18.025Z,98776.72
2023-01-13T17:41:45.632Z,98779.88
2023-01-13T17:44:16.932Z,98787.06
2023-01-13T17:46:44.407Z,98794.75
2023-01-13T17:49:13.309Z,98791.03
2023-01-13T17:51:40.255Z,98795.19
2023-01-13T17:54:07.376Z,98791.13
2023-01-13T17:56:34.196Z,98792.31
2023-01-13T17:59:00.961Z,98809.66
2023-01-13T18:01:30.895Z,98809.88
2023-01-13T18:03:57.914Z,98802.22
2023-01-13T18:06:24.880Z,98804.88
2023-01-13T18:08:52.240Z,98818.94
2023-01-13T18:11:20.828Z,98813.78
2023-01-13T18:14:00.340Z,98819.97
2023-01-13T18:16:30.215Z,98823.00
2023-01-13T18:19:36.271Z,98824.41
2023-01-13T18:22:21.558Z,98821.38
2023-01-13T18:25:07.103Z,98820.56
2023-01-13T18:27:36.103Z,98813.13
2023-01-13T18:30:03.724Z,98812.16
2023-01-13T18:32:33.050Z,98809.72
2023-01-13T18:35:06.798Z,98827.00
2023-01-13T18:37:38.741Z,98813.66
2023-01-13T18:40:07.375Z,98805.00
2023-01-13T18:42:53.605Z,98806.91
2023-01-13T18:45:25.769Z,98806.09
2023-01-13T18:47:54.755Z,98808.47
2023-01-13T18:50:22.517Z,98802.56
2023-01-13T18:52:49.553Z,98807.88
2023-01-13T18:55:16.405Z,98812.22
2023-01-13T18:57:43.547Z,98815.28
2023-01-13T19:00:12.522Z,98823.94
2023-01-13T19:02:39.668Z,98825.41
2023-01-13T19:05:07.072Z,98832.47
2023-01-13T19:07:35.792Z,98829.66
2023-01-13T19:10:04.475Z,98831.09
2023-01-13T19:12:33.731Z,98830.59
2023-01-13T19:15:02.845Z,98838.94
2023-01-13T19:17:34.630Z,98846.13
2023-01-13T19:20:01.825Z,98842.63
2023-01-13T19:22:33.732Z,98846.78
2023-01-13T19:25:01.577Z,98840.94
2023-01-13T19:27:28.875Z,98838.91
2023-01-13T19:30:01.533Z,98846.09
2023-01-13T19:32:30.920Z,98846.88
2023-01-13T19:34:59.582Z,98836.09
2023-01-13T19:37:34.347Z,98836.06
2023-01-13T19:40:01.383Z,98834.84
2023-01-13T19:42:46.736Z,98830.53
2023-01-13T19:45:27.453Z,98832.97
2023-01-13T19:47:55.454Z,98832.97
2023-01-13T19:50:22.360Z,98851.50
2023-01-13T19:52:49.188Z,98858.66
2023-01-13T19:55:16.037Z,98867.00
2023-01-13T19:57:43.543Z,98865.00
2023-01-13T20:00:11.902Z,98863.38
2023-01-13T20:02:47.973Z,98876.03
2023-01-13T20:05:21.263Z,98873.56
2023-01-13T20:07:49.223Z,98873.78
2023-01-13T20:10:17.886Z,98869.47
2023-01-13T20:12:45.346Z,98882.94
2023-01-13T20:15:14.618Z,98888.00
2023-01-13T20:17:42.054Z,98887.00
2023-01-13T20:20:10.495Z,98886.81
2023-01-13T20:22:38.903Z,98883.34
2023-01-13T20:25:06.311Z,98895.34
2023-01-13T20:27:33.174Z,98901.28
2023-01-13T20:29:59.970Z,98908.00
2023-01-13T20:32:26.769Z,98907.22
2023-01-13T20:34:53.566Z,98907.00
2023-01-13T20:37:20.402Z,98911.25
2023-01-13T20:39:48.239Z,98898.19
2023-01-13T20:42:30.082Z,98893.69
2023-01-13T20:45:01.221Z,98892.41
2023-01-13T20:47:29.383Z,98884.75
2023-01-13T20:49:56.220Z,98882.91
2023-01-13T20:52:23.231Z,98880.25
2023-01-13T20:54:50.065Z,98871.06
2023-01-13T20:57:17.224Z,98869.13
2023-01-13T20:59:43.938Z,98859.94
2023-01-13T21:02:13.320Z,98863.63
2023-01-13T21:04:40.588Z,98863.03
2023-01-13T21:07:07.723Z,98857.72
2023-01-13T21:09:34.779Z,98857.34
2023-01-13T21:12:20.445Z,98852.38
2023-01-13T21:15:06.172Z,98853.41
2023-01-13T21:17:51.431Z,98843.00
2023-01-13T21:20:18.533Z,98848.41
2023-01-13T21:22:46.661Z,98843.09
2023-01-13T21:25:14.277Z,98839.28
2023-01-13T21:27:41.772Z,98834.81
2023-01-13T21:30:09.167Z,98832.41
2023-01-13T21:32:35.978Z,98831.19
2023-01-13T21:35:02.882Z,98820.81
2023-01-13T21:37:29.680Z,98820.19
2023-01-13T21:39:56.771Z,98816.88
2023-01-13T21:42:42.295Z,98821.97
2023-01-13T21:45:29.112Z,98809.16
2023-01-13T21:47:56.164Z,98790.63
2023-01-13T21:50:25.917Z,98784.72
2023-01-13T21:52:52.920Z,98788.56
2023-01-13T21:55:25.486Z,98778.16
2023-01-13T21:58:12.921Z,98764.91
2023-01-13T22:00:41.552Z,98777.31
2023-01-13T22:03:09.643Z,98773.22
2023-01-13T22:05:36.753Z,98774.97
2023-01-13T22:08:04.354Z,98765.81
2023-01-13T22:10:32.068Z,98762.06
2023-01-13T22:13:20.755Z,98773.22
2023-01-13T22:15:47.710Z,98772.41
2023-01-13T22:18:14.547Z,98781.56
2023-01-13T22:20:42.158Z,98777.34
2023-01-13T22:23:09.528Z,98781.84
2023-01-13T22:25:36.917Z,98789.00
2023-01-13T22:28:06.344Z,98779.25
2023-01-13T22:30:33.365Z,98771.56
2023-01-13T22:33:00.635Z,98768.09
2023-01-13T22:35:27.532Z,98776.81
2023-01-13T22:37:54.356Z,98766.84
2023-01-13T22:40:21.451Z,98776.22
2023-01-13T22:42:48.271Z,98766.22
2023-01-13T22:45:15.102Z,98763.22
2023-01-13T22:47:42.010Z,98755.25
2023-01-13T22:50:09.475Z,98755.66
2023-01-13T22:52:36.632Z,98755.44
2023-01-13T22:55:04.051Z,98747.06
2023-01-13T22:57:35.973Z,98745.63
2023-01-13T23:00:07.056Z,98743.41
2023-01-13T23:02:34.703Z,98734.09
2023-01-13T23:05:02.364Z,98731.47
2023-01-13T23:07:29.556Z,98735.28
2023-01-13T23:09:56.617Z,98729.78
2023-01-13T23:12:23.806Z,98729.59
2023-01-13T23:14:50.817Z,98720.25
2023-01-13T23:17:17.809Z,98725.94
2023-01-13T23:19:44.671Z,98731.56
2023-01-13T23:22:13.176Z,98725.47
2023-01-13T23:24:40.083Z,98729.97
2023-01-13T23:27:07.036Z,98726.09
2023-01-13T23:29:34.131Z,98735.72
2023-01-13T23:32:00.970Z,98737.53
2023-01-13T23:34:27.941Z,98730.00
2023-01-13T23:36:54.695Z,98736.53
2023-01-13T23:39:21.542Z,98723.09
2023-01-13T23:41:48.337Z,98718.22
2023-01-13T23:44:15.249Z,98709.09
2023-01-13T23:46:42.149Z,98700.31
2023-01-13T23:49:09.258Z,98706.19
2023-01-13T23:51:36.128Z,98698.63
2023-01-13T23:54:02.984Z,98678.91
2023-01-13T23:56:31.228Z,98654.31
2023-01-13T23:58:58.238Z,98660.94
